createdAt,value
2023-05-02T00:01:18.709Z,32.04
2023-05-02T00:03:49.392Z,31.93
2023-05-02T00:06:19.233Z,32.06
2023-05-02T00:08:49.380Z,32.19
2023-05-02T00:11:19.090Z,32.03
2023-05-02T00:13:48.828Z,32.00
2023-05-02T00:16:19.734Z,31.91
2023-05-02T00:18:50.851Z,31.97
2023-05-02T00:21:20.560Z,31.97
2023-05-02T00:23:53.306Z,31.93
2023-05-02T00:26:23.104Z,32.21
2023-05-02T00:28:52.780Z,32.16
2023-05-02T00:31:22.486Z,32.07
2023-05-02T00:33:52.200Z,32.23
2023-05-02T00:36:22.169Z,32.21
2023-05-02T00:38:52.005Z,32.33
2023-05-02T00:41:21.649Z,32.65
2023-05-02T00:43:51.310Z,32.76
2023-05-02T00:46:20.969Z,32.92
2023-05-02T00:48:50.615Z,33.13
2023-05-02T00:51:20.420Z,32.98
2023-05-02T00:53:50.117Z,33.24
2023-05-02T00:56:22.421Z,33.36
2023-05-02T00:58:52.145Z,33.25
2023-05-02T01:01:39.758Z,33.37
2023-05-02T01:04:44.292Z,34.05
2023-05-02T01:07:41.256Z,34.38
2023-05-02T01:10:32.728Z,34.15
2023-05-02T01:13:26.743Z,34.49
2023-05-02T01:15:56.477Z,34.04
2023-05-02T01:18:27.056Z,33.95
2023-05-02T01:21:03.865Z,34.64
2023-05-02T01:23:59.703Z,34.25
2023-05-02T01:27:15.682Z,34.57
2023-05-02T01:29:45.541Z,34.25
2023-05-02T01:32:15.221Z,34.12
2023-05-02T01:34:45.314Z,34.19
2023-05-02T01:37:15.403Z,34.32
2023-05-02T01:39:45.152Z,34.11
2023-05-02T01:42:15.157Z,34.15
2023-05-02T01:44:45.081Z,34.45
2023-05-02T01:47:20.042Z,34.75
2023-05-02T01:49:49.823Z,34.59
2023-05-02T01:52:19.478Z,34.53
2023-05-02T01:54:52.973Z,34.64
2023-05-02T01:57:22.695Z,34.55
2023-05-02T01:59:52.307Z,34.71
2023-05-02T02:02:22.008Z,34.56
2023-05-02T02:04:51.680Z,34.62
2023-05-02T02:07:21.519Z,34.55
2023-05-02T02:09:51.191Z,34.61
2023-05-02T02:12:29.544Z,34.52
2023-05-02T02:15:05.269Z,34.57
2023-05-02T02:18:11.037Z,34.54
2023-05-02T02:20:40.694Z,34.58
2023-05-02T02:23:10.444Z,34.27
2023-05-02T02:25:40.337Z,34.23
2023-05-02T02:28:10.251Z,34.30
2023-05-02T02:30:42.526Z,34.22
2023-05-02T02:33:12.322Z,34.13
2023-05-02T02:35:48.330Z,34.04
2023-05-02T02:38:37.354Z,34.22
2023-05-02T02:41:16.846Z,34.00
2023-05-02T02:44:13.878Z,34.19
2023-05-02T02:47:19.638Z,34.00
2023-05-02T02:49:56.092Z,34.07
2023-05-02T02:52:42.526Z,34.02
2023-05-02T02:55:33.469Z,33.96
2023-05-02T02:58:22.409Z,33.92
2023-05-02T03:00:52.084Z,33.87
2023-05-02T03:03:22.517Z,34.27
2023-05-02T03:05:52.393Z,34.12
2023-05-02T03:08:22.056Z,34.11
2023-05-02T03:10:51.827Z,34.14
2023-05-02T03:13:21.437Z,33.98
2023-05-02T03:15:54.800Z,33.90
2023-05-02T03:18:24.439Z,33.83
2023-05-02T03:20:54.285Z,33.80
2023-05-02T03:23:23.925Z,33.76
2023-05-02T03:25:54.524Z,33.66
2023-05-02T03:28:24.183Z,33.80
2023-05-02T03:30:53.855Z,33.84
2023-05-02T03:33:23.592Z,33.67
2023-05-02T03:35:53.339Z,33.84
2023-05-02T03:38:23.411Z,33.75
2023-05-02T03:40:53.189Z,33.46
2023-05-02T03:43:23.044Z,33.50
2023-05-02T03:45:52.862Z,33.46
2023-05-02T03:48:28.143Z,33.30
2023-05-02T03:50:58.249Z,33.63
2023-05-02T03:53:27.878Z,33.47
2023-05-02T03:55:57.614Z,33.35
2023-05-02T03:58:28.475Z,33.22
2023-05-02T04:00:58.215Z,33.30
2023-05-02T04:03:29.736Z,33.38
2023-05-02T04:06:02.734Z,33.27
2023-05-02T04:08:32.433Z,33.05
2023-05-02T04:11:02.229Z,33.02
2023-05-02T04:13:31.990Z,33.00
2023-05-02T04:16:01.728Z,32.83
2023-05-02T04:18:31.407Z,32.95
2023-05-02T04:21:01.119Z,32.92
2023-05-02T04:23:30.800Z,32.84
2023-05-02T04:26:00.485Z,32.98
2023-05-02T04:28:30.149Z,32.91
2023-05-02T04:30:59.905Z,32.85
2023-05-02T04:33:29.660Z,32.82
2023-05-02T04:35:59.353Z,33.04
2023-05-02T04:38:29.234Z,32.97
2023-05-02T04:40:58.870Z,33.10
2023-05-02T04:43:28.505Z,33.07
2023-05-02T04:46:00.200Z,32.85
2023-05-02T04:48:29.965Z,32.73
2023-05-02T04:50:59.686Z,32.82
2023-05-02T04:53:29.898Z,32.79
2023-05-02T04:55:59.786Z,32.54
2023-05-02T04:58:29.530Z,32.65
2023-05-02T05:00:59.187Z,32.74
2023-05-02T05:03:29.924Z,32.47
2023-05-02T05:05:59.831Z,32.75
2023-05-02T05:08:29.593Z,32.68
2023-05-02T05:10:59.388Z,32.70
2023-05-02T05:13:30.022Z,32.59
2023-05-02T05:15:59.805Z,32.68
2023-05-02T05:18:29.571Z,32.71
2023-05-02T05:20:59.461Z,33.05
2023-05-02T05:23:30.013Z,32.86
2023-05-02T05:25:59.705Z,32.63
2023-05-02T05:28:29.348Z,32.57
2023-05-02T05:30:59.132Z,32.54
2023-05-02T05:33:28.838Z,32.67
2023-05-02T05:35:59.089Z,32.45
2023-05-02T05:38:28.962Z,32.52
2023-05-02T05:40:58.697Z,32.64
2023-05-02T05:43:28.578Z,32.41
2023-05-02T05:45:58.331Z,32.39
2023-05-02T05:48:28.057Z,32.56
2023-05-02T05:50:57.718Z,32.46
2023-05-02T05:53:27.325Z,32.36
2023-05-02T05:55:57.066Z,32.48
2023-05-02T05:58:26.737Z,33.15
2023-05-02T06:00:56.508Z,32.77
2023-05-02T06:03:26.257Z,32.96
2023-05-02T06:05:56.304Z,32.52
2023-05-02T06:08:25.969Z,32.48
2023-05-02T06:10:55.625Z,32.42
2023-05-02T06:13:25.342Z,32.51
2023-05-02T06:15:55.021Z,32.50
2023-05-02T06:18:24.777Z,32.50
2023-05-02T06:20:54.430Z,32.59
2023-05-02T06:23:24.123Z,32.74
2023-05-02T06:25:53.904Z,32.49
2023-05-02T06:28:23.521Z,32.72
2023-05-02T06:31:13.155Z,32.63
2023-05-02T06:33:42.975Z,32.78
2023-05-02T06:36:12.580Z,32.75
2023-05-02T06:38:42.280Z,32.76
2023-05-02T06:41:18.716Z,33.01
2023-05-02T06:43:48.495Z,33.01
2023-05-02T06:46:19.011Z,33.00
2023-05-02T06:48:48.670Z,32.94
2023-05-02T06:51:18.308Z,32.93
2023-05-02T06:53:47.999Z,32.87
2023-05-02T06:56:17.729Z,33.13
2023-05-02T06:58:47.500Z,33.31
2023-05-02T07:01:17.236Z,33.43
2023-05-02T07:03:48.106Z,33.53
2023-05-02T07:06:18.237Z,33.56
2023-05-02T07:08:47.888Z,33.58
2023-05-02T07:11:20.374Z,33.60
2023-05-02T07:13:50.017Z,33.54
2023-05-02T07:16:19.667Z,33.84
2023-05-02T07:18:49.308Z,33.61
2023-05-02T07:21:20.722Z,33.76
2023-05-02T07:23:50.417Z,34.05
2023-05-02T07:26:21.638Z,34.18
2023-05-02T07:28:51.237Z,34.21
2023-05-02T07:31:20.933Z,34.37
2023-05-02T07:33:50.615Z,34.38
2023-05-02T07:36:20.304Z,34.41
2023-05-02T07:38:49.980Z,34.47
2023-05-02T07:41:19.674Z,34.71
2023-05-02T07:43:49.371Z,34.75
2023-05-02T07:46:19.106Z,34.70
2023-05-02T07:48:48.918Z,34.91
2023-05-02T07:51:18.616Z,35.03
2023-05-02T07:53:48.271Z,34.88
2023-05-02T07:56:17.911Z,35.14
2023-05-02T07:58:47.639Z,35.06
2023-05-02T08:01:17.245Z,35.30
2023-05-02T08:03:47.579Z,35.16
2023-05-02T08:06:17.698Z,35.39
2023-05-02T08:08:47.386Z,35.48
2023-05-02T08:11:17.195Z,35.48
2023-05-02T08:13:46.837Z,35.63
2023-05-02T08:16:16.683Z,35.81
2023-05-02T08:18:46.426Z,35.97
2023-05-02T08:21:16.576Z,35.91
2023-05-02T08:23:47.776Z,36.14
2023-05-02T08:26:20.436Z,36.34
2023-05-02T08:28:50.041Z,36.28
2023-05-02T08:31:19.751Z,36.47
2023-05-02T08:33:49.688Z,36.53
2023-05-02T08:36:19.833Z,36.65
2023-05-02T08:38:49.635Z,36.54
2023-05-02T08:41:20.178Z,36.95
2023-05-02T08:43:49.974Z,36.72
2023-05-02T08:46:19.983Z,36.83
2023-05-02T08:48:52.479Z,36.80
2023-05-02T08:51:22.307Z,36.99
2023-05-02T08:53:51.939Z,37.06
2023-05-02T08:56:22.161Z,37.14
2023-05-02T08:58:52.557Z,37.19
2023-05-02T09:01:24.776Z,37.13
2023-05-02T09:03:56.185Z,37.17
2023-05-02T09:06:25.963Z,37.17
2023-05-02T09:08:55.943Z,37.26
2023-05-02T09:11:25.558Z,36.91
2023-05-02T09:13:55.280Z,37.14
2023-05-02T09:16:27.481Z,37.10
2023-05-02T09:18:58.252Z,37.23
2023-05-02T09:21:29.206Z,37.12
2023-05-02T09:24:02.387Z,37.25
2023-05-02T09:26:33.973Z,37.16
2023-05-02T09:29:05.115Z,37.20
2023-05-02T09:34:12.153Z,37.19
2023-05-02T09:39:26.035Z,37.15
2023-05-02T09:41:56.167Z,37.18
2023-05-02T09:44:27.436Z,37.15
2023-05-02T09:46:58.934Z,37.40
2023-05-02T09:49:46.816Z,37.34
2023-05-02T09:52:17.910Z,37.14
2023-05-02T09:54:54.700Z,36.90
2023-05-02T09:57:24.885Z,36.96
2023-05-02T10:00:01.183Z,37.14
2023-05-02T10:02:32.379Z,36.92
2023-05-02T10:05:02.669Z,37.09
2023-05-02T10:07:32.495Z,36.95
2023-05-02T10:10:02.314Z,36.82
2023-05-02T10:12:32.140Z,36.98
2023-05-02T10:15:04.774Z,36.90
2023-05-02T10:17:37.496Z,36.92
2023-05-02T10:20:08.336Z,36.83
2023-05-02T10:25:07.785Z,36.91
2023-05-02T10:27:39.384Z,36.90
2023-05-02T10:30:09.683Z,36.85
2023-05-02T10:32:39.594Z,36.81
2023-05-02T10:35:12.629Z,36.87
2023-05-02T10:37:42.393Z,36.75
2023-05-02T10:40:15.422Z,37.03
2023-05-02T10:42:49.382Z,37.05
2023-05-02T10:45:38.353Z,36.90
2023-05-02T10:48:21.787Z,36.79
2023-05-02T10:50:56.224Z,36.75
2023-05-02T10:53:27.149Z,36.60
2023-05-02T10:56:15.805Z,36.63
2023-05-02T10:58:46.796Z,36.54
2023-05-02T11:01:29.065Z,36.55
2023-05-02T11:04:07.773Z,36.44
2023-05-02T11:06:59.373Z,36.23
2023-05-02T11:09:32.766Z,36.01
2023-05-02T11:12:03.628Z,36.03
2023-05-02T11:14:42.321Z,35.88
2023-05-02T11:17:12.396Z,35.89
2023-05-02T11:19:48.010Z,35.79
2023-05-02T11:22:25.375Z,35.74
2023-05-02T11:24:55.196Z,35.66
2023-05-02T11:27:47.137Z,35.71
2023-05-02T11:30:17.621Z,35.65
2023-05-02T11:32:47.669Z,35.59
2023-05-02T11:35:28.410Z,35.48
2023-05-02T11:37:58.488Z,35.42
2023-05-02T11:40:28.823Z,35.28
2023-05-02T11:42:59.569Z,35.42
2023-05-02T11:45:38.709Z,35.33
2023-05-02T11:48:08.770Z,35.55
2023-05-02T11:50:54.229Z,35.16
2023-05-02T11:53:27.707Z,35.26
2023-05-02T11:55:58.931Z,35.29
2023-05-02T11:58:34.267Z,35.11
2023-05-02T12:01:18.915Z,35.36
2023-05-02T12:03:50.012Z,35.14
2023-05-02T12:06:22.757Z,35.19
2023-05-02T12:08:57.010Z,35.05
2023-05-02T12:11:26.628Z,35.13
2023-05-02T12:13:56.255Z,35.21
2023-05-02T12:16:25.961Z,35.05
2023-05-02T12:18:55.738Z,34.98
2023-05-02T12:21:25.559Z,34.80
2023-05-02T12:23:55.376Z,34.83
2023-05-02T12:26:27.018Z,35.02
2023-05-02T12:28:56.892Z,35.01
2023-05-02T12:31:26.980Z,34.71
2023-05-02T12:33:59.079Z,34.97
2023-05-02T12:36:32.332Z,34.86
2023-05-02T12:39:03.675Z,34.96
2023-05-02T12:41:33.955Z,34.70
2023-05-02T12:44:03.885Z,34.65
2023-05-02T12:46:33.907Z,34.65
2023-05-02T12:49:13.738Z,34.71
2023-05-02T12:51:43.673Z,34.63
2023-05-02T12:54:24.337Z,34.55
2023-05-02T12:56:54.033Z,34.70
2023-05-02T12:59:32.222Z,34.69
2023-05-02T13:02:02.351Z,34.93
2023-05-02T13:04:42.318Z,34.58
2023-05-02T13:07:12.546Z,34.50
2023-05-02T13:09:42.310Z,34.52
2023-05-02T13:12:11.977Z,34.55
2023-05-02T13:14:41.813Z,34.45
2023-05-02T13:17:11.854Z,34.49
2023-05-02T13:19:50.436Z,34.58
2023-05-02T13:22:20.418Z,34.44
2023-05-02T13:24:50.060Z,34.50
2023-05-02T13:27:20.209Z,34.40
2023-05-02T13:29:50.902Z,34.44
2023-05-02T13:32:21.267Z,34.68
2023-05-02T13:34:51.031Z,34.38
2023-05-02T13:37:20.668Z,34.57
2023-05-02T13:39:50.352Z,34.45
2023-05-02T13:42:19.947Z,34.64
2023-05-02T13:44:49.587Z,34.44
2023-05-02T13:47:19.404Z,34.55
2023-05-02T13:49:49.107Z,34.55
2023-05-02T13:52:18.917Z,34.54
2023-05-02T13:54:48.726Z,34.51
2023-05-02T13:57:18.403Z,34.42
2023-05-02T13:59:48.067Z,34.51
2023-05-02T14:02:18.242Z,34.62
2023-05-02T14:04:48.050Z,34.67
2023-05-02T14:07:17.715Z,34.42
2023-05-02T14:09:47.356Z,34.60
2023-05-02T14:12:17.557Z,34.63
2023-05-02T14:14:47.501Z,34.65
2023-05-02T14:17:17.098Z,34.56
2023-05-02T14:19:46.756Z,34.49
2023-05-02T14:22:16.413Z,34.59
2023-05-02T14:24:46.077Z,34.66
2023-05-02T14:27:19.633Z,34.61
2023-05-02T14:29:49.773Z,34.58
2023-05-02T14:32:19.473Z,34.60
2023-05-02T14:34:49.194Z,34.58
2023-05-02T14:37:18.936Z,34.80
2023-05-02T14:39:52.205Z,34.57
2023-05-02T14:42:23.497Z,34.62
2023-05-02T14:44:53.851Z,34.49
2023-05-02T14:47:24.095Z,34.54
2023-05-02T14:49:54.143Z,34.61
2023-05-02T14:52:23.750Z,34.50
2023-05-02T14:54:53.436Z,34.61
2023-05-02T14:57:23.568Z,34.59
2023-05-02T14:59:53.322Z,34.53
2023-05-02T15:02:23.299Z,34.58
2023-05-02T15:04:53.129Z,34.45
2023-05-02T15:07:23.386Z,34.54
2023-05-02T15:09:53.213Z,34.58
2023-05-02T15:12:23.000Z,34.47
2023-05-02T15:14:52.573Z,34.51
2023-05-02T15:17:23.027Z,34.41
2023-05-02T15:19:52.684Z,34.34
2023-05-02T15:22:23.433Z,34.45
2023-05-02T15:24:53.228Z,34.43
2023-05-02T15:27:22.915Z,34.29
2023-05-02T15:29:52.597Z,34.09
2023-05-02T15:32:23.650Z,34.41
2023-05-02T15:34:53.377Z,34.41
2023-05-02T15:37:23.152Z,34.34
2023-05-02T15:39:53.400Z,34.41
2023-05-02T15:42:23.031Z,34.30
2023-05-02T15:44:55.566Z,34.45
2023-05-02T15:47:25.373Z,34.23
2023-05-02T15:49:56.566Z,34.13
2023-05-02T15:52:26.166Z,34.13
2023-05-02T15:54:57.509Z,34.22
2023-05-02T15:57:27.806Z,34.23
2023-05-02T15:59:57.438Z,34.22
2023-05-02T16:02:27.556Z,34.32
2023-05-02T16:04:57.242Z,34.15
2023-05-02T16:07:29.746Z,34.17
2023-05-02T16:09:59.586Z,34.33
2023-05-02T16:12:29.589Z,33.99
2023-05-02T16:14:59.506Z,34.22
2023-05-02T16:17:30.051Z,34.13
2023-05-02T16:20:00.064Z,34.25
2023-05-02T16:22:30.411Z,34.24
2023-05-02T16:25:00.057Z,34.27
2023-05-02T16:27:29.665Z,34.13
2023-05-02T16:29:59.708Z,34.51
2023-05-02T16:34:59.281Z,34.09
2023-05-02T16:37:29.035Z,34.14
2023-05-02T16:39:59.471Z,34.12
2023-05-02T16:42:29.455Z,34.17
2023-05-02T16:44:59.369Z,34.06
2023-05-02T16:47:29.772Z,34.14
2023-05-02T16:50:00.584Z,34.10
2023-05-02T16:52:30.585Z,34.05
2023-05-02T16:55:00.475Z,34.21
2023-05-02T16:57:30.361Z,34.15
2023-05-02T17:00:01.012Z,34.14
2023-05-02T17:02:31.510Z,34.06
2023-05-02T17:05:01.165Z,34.12
2023-05-02T17:07:30.764Z,34.08
2023-05-02T17:10:01.143Z,34.07
2023-05-02T17:12:33.711Z,34.13
2023-05-02T17:15:04.309Z,34.15
2023-05-02T17:17:34.185Z,34.16
2023-05-02T17:20:04.096Z,34.50
2023-05-02T17:22:37.186Z,34.15
2023-05-02T17:25:10.182Z,34.10
2023-05-02T17:27:41.057Z,34.09
2023-05-02T17:30:11.441Z,34.16
2023-05-02T17:32:42.032Z,34.17
2023-05-02T17:35:12.091Z,33.87
2023-05-02T17:37:42.193Z,34.01
2023-05-02T17:40:12.591Z,34.07
2023-05-02T17:42:44.988Z,34.04
2023-05-02T17:45:15.059Z,34.14
2023-05-02T17:47:44.817Z,33.93
2023-05-02T17:50:15.682Z,34.02
2023-05-02T17:52:45.384Z,34.10
2023-05-02T17:55:16.449Z,34.02
2023-05-02T17:57:47.424Z,33.99
2023-05-02T18:00:17.376Z,34.11
2023-05-02T18:02:47.061Z,33.95
2023-05-02T18:05:17.473Z,34.03
2023-05-02T18:07:47.138Z,34.04
2023-05-02T18:10:17.019Z,34.04
2023-05-02T18:12:46.666Z,34.22
2023-05-02T18:15:16.252Z,34.16
2023-05-02T18:17:45.979Z,34.03
2023-05-02T18:20:16.565Z,34.11
2023-05-02T18:22:46.224Z,34.13
2023-05-02T18:25:15.898Z,34.05
2023-05-02T18:27:45.866Z,34.10
2023-05-02T18:30:15.545Z,34.04
2023-05-02T18:32:45.285Z,33.88
2023-05-02T18:35:15.011Z,33.96
2023-05-02T18:37:44.721Z,33.98
2023-05-02T18:40:14.697Z,33.97
2023-05-02T18:42:46.941Z,33.92
2023-05-02T18:45:17.341Z,34.05
2023-05-02T18:47:47.030Z,34.18
2023-05-02T18:50:17.093Z,33.93
2023-05-02T18:52:46.783Z,33.91
2023-05-02T18:55:16.396Z,34.07
2023-05-02T18:57:46.504Z,34.04
2023-05-02T19:00:16.818Z,33.95
2023-05-02T19:02:46.802Z,34.03
2023-05-02T19:05:16.583Z,34.21
2023-05-02T19:07:46.360Z,34.02
2023-05-02T19:10:16.026Z,34.00
2023-05-02T19:12:45.661Z,34.09
2023-05-02T19:15:15.285Z,33.95
2023-05-02T19:17:45.903Z,34.30
2023-05-02T19:20:15.517Z,33.98
2023-05-02T19:22:45.366Z,33.90
2023-05-02T19:25:16.211Z,33.96
2023-05-02T19:27:48.144Z,33.99
2023-05-02T19:30:18.029Z,34.04
2023-05-02T19:32:47.672Z,33.99
2023-05-02T19:35:17.384Z,34.09
2023-05-02T19:37:47.073Z,34.03
2023-05-02T19:40:17.911Z,33.99
2023-05-02T19:42:47.548Z,34.03
2023-05-02T19:45:17.216Z,34.06
2023-05-02T19:47:47.281Z,34.06
2023-05-02T19:50:17.070Z,34.12
2023-05-02T19:52:49.412Z,34.05
2023-05-02T19:55:20.074Z,34.04
2023-05-02T19:57:50.277Z,34.06
2023-05-02T20:00:20.268Z,34.17
2023-05-02T20:02:51.322Z,34.45
2023-05-02T20:05:21.417Z,33.95
2023-05-02T20:07:51.067Z,34.16
2023-05-02T20:10:20.778Z,34.13
2023-05-02T20:12:50.429Z,34.24
2023-05-02T20:15:20.122Z,34.09
2023-05-02T20:17:49.950Z,34.19
2023-05-02T20:20:19.591Z,34.13
2023-05-02T20:22:49.214Z,34.18
2023-05-02T20:25:18.918Z,34.23
2023-05-02T20:27:48.516Z,34.31
2023-05-02T20:30:18.247Z,34.45
2023-05-02T20:32:48.035Z,34.26
2023-05-02T20:35:17.751Z,34.42
2023-05-02T20:37:48.384Z,34.35
2023-05-02T20:40:18.090Z,34.05
2023-05-02T20:42:48.830Z,34.31
2023-05-02T20:45:20.375Z,34.28
2023-05-02T20:47:50.089Z,34.41
2023-05-02T20:50:20.036Z,34.58
2023-05-02T20:52:49.747Z,34.54
2023-05-02T20:55:20.250Z,34.57
2023-05-02T20:57:52.749Z,34.42
2023-05-02T21:00:25.591Z,34.43
2023-05-02T21:02:55.331Z,34.42
2023-05-02T21:05:25.014Z,34.65
2023-05-02T21:07:54.641Z,34.51
2023-05-02T21:10:24.450Z,34.46
2023-05-02T21:12:54.041Z,34.55
2023-05-02T21:15:23.669Z,34.43
2023-05-02T21:18:01.478Z,34.51
2023-05-02T21:20:31.709Z,34.53
2023-05-02T21:23:01.389Z,34.50
2023-05-02T21:25:31.021Z,34.63
2023-05-02T21:28:00.692Z,34.60
2023-05-02T21:30:33.159Z,34.66
2023-05-02T21:33:02.904Z,34.91
2023-05-02T21:35:36.381Z,34.70
2023-05-02T21:38:06.087Z,34.87
2023-05-02T21:40:38.847Z,35.05
2023-05-02T21:43:08.677Z,35.05
2023-05-02T21:45:49.761Z,34.83
2023-05-02T21:48:19.712Z,34.90
2023-05-02T21:50:55.736Z,34.96
2023-05-02T21:53:25.439Z,35.11
2023-05-02T21:55:55.092Z,35.05
2023-05-02T21:58:24.767Z,35.09
2023-05-02T22:00:54.421Z,35.24
2023-05-02T22:03:24.886Z,35.36
2023-05-02T22:05:56.114Z,35.22
2023-05-02T22:08:26.313Z,35.35
2023-05-02T22:10:56.102Z,35.34
2023-05-02T22:13:25.681Z,35.36
2023-05-02T22:15:55.277Z,35.17
2023-05-02T22:18:24.907Z,35.36
2023-05-02T22:20:55.604Z,35.52
2023-05-02T22:23:25.668Z,35.58
2023-05-02T22:25:55.333Z,35.34
2023-05-02T22:28:25.187Z,35.42
2023-05-02T22:30:57.797Z,35.49
2023-05-02T22:33:27.660Z,35.43
2023-05-02T22:35:58.468Z,35.31
2023-05-02T22:38:28.212Z,35.44
2023-05-02T22:40:57.842Z,35.37
2023-05-02T22:43:27.565Z,35.12
2023-05-02T22:45:57.475Z,35.26
2023-05-02T22:48:27.339Z,35.47
2023-05-02T22:50:57.540Z,35.29
2023-05-02T22:53:27.675Z,35.35
2023-05-02T22:55:57.740Z,35.17
2023-05-02T22:58:27.529Z,35.35
2023-05-02T23:00:57.148Z,35.41
2023-05-02T23:03:27.148Z,35.41
2023-05-02T23:05:58.788Z,35.58
2023-05-02T23:08:28.538Z,35.40
2023-05-02T23:11:00.932Z,35.62
2023-05-02T23:13:31.291Z,35.76
2023-05-02T23:16:00.998Z,35.72
2023-05-02T23:18:30.811Z,35.48
2023-05-02T23:21:00.458Z,35.51
2023-05-02T23:23:30.442Z,35.50
2023-05-02T23:26:00.575Z,35.46
2023-05-02T23:28:30.386Z,35.44
2023-05-02T23:33:38.731Z,35.63
2023-05-02T23:36:09.337Z,35.63
2023-05-02T23:38:41.702Z,35.76
2023-05-02T23:41:11.339Z,35.61
2023-05-02T23:43:41.033Z,35.72
2023-05-02T23:46:10.728Z,35.62
2023-05-02T23:48:40.361Z,35.64
2023-05-02T23:51:13.914Z,35.79
2023-05-02T23:53:46.881Z,35.58
2023-05-02T23:56:19.949Z,35.65
2023-05-02T23:58:49.669Z,35.57
